createdAt,value
2022-08-10T00:00:21.082Z,16.29
2022-08-10T00:03:07.778Z,16.24
2022-08-10T00:05:54.850Z,16.47
2022-08-10T00:08:41.402Z,16.51
2022-08-10T00:11:27.086Z,16.38
2022-08-10T00:14:12.720Z,16.28
2022-08-10T00:16:58.039Z,16.29
2022-08-10T00:20:03.415Z,16.39
2022-08-10T00:22:57.839Z,16.32
2022-08-10T00:25:43.416Z,16.15
2022-08-10T00:28:29.107Z,15.97
2022-08-10T00:31:14.477Z,15.83
2022-08-10T00:34:00.318Z,15.96
2022-08-10T00:36:45.615Z,15.88
2022-08-10T00:39:36.168Z,15.75
2022-08-10T00:42:21.660Z,15.64
2022-08-10T00:45:07.399Z,15.72
2022-08-10T00:47:52.926Z,15.67
2022-08-10T00:50:38.574Z,15.75
2022-08-10T00:53:24.345Z,15.73
2022-08-10T00:57:12.214Z,15.71
2022-08-10T00:59:17.598Z,15.82
2022-08-10T01:02:08.914Z,15.57
2022-08-10T01:05:00.171Z,15.44
2022-08-10T01:08:08.126Z,15.46
2022-08-10T01:11:02.845Z,15.50
2022-08-10T01:14:09.242Z,15.31
2022-08-10T01:17:02.863Z,15.47
2022-08-10T01:20:09.115Z,15.38
2022-08-10T01:23:31.983Z,15.37
2022-08-10T01:26:42.405Z,15.18
2022-08-10T01:29:42.461Z,14.98
2022-08-10T01:33:06.421Z,15.02
2022-08-10T01:35:54.423Z,15.01
2022-08-10T01:38:45.824Z,15.05
2022-08-10T01:41:45.571Z,14.94
2022-08-10T01:44:44.947Z,15.09
2022-08-10T01:47:54.500Z,15.19
2022-08-10T01:50:59.984Z,15.25
2022-08-10T01:53:54.890Z,15.08
2022-08-10T01:56:43.708Z,15.01
2022-08-10T01:59:37.648Z,15.20
2022-08-10T02:02:24.948Z,14.99
2022-08-10T02:05:11.666Z,14.93
2022-08-10T02:07:59.375Z,14.95
2022-08-10T02:10:47.810Z,14.94
2022-08-10T02:13:34.655Z,14.85
2022-08-10T02:16:21.250Z,14.74
2022-08-10T02:19:08.413Z,14.70
2022-08-10T02:22:37.381Z,14.61
2022-08-10T02:25:07.591Z,14.64
2022-08-10T02:27:54.688Z,14.46
2022-08-10T02:30:40.138Z,14.48
2022-08-10T02:33:28.505Z,14.42
2022-08-10T02:36:16.694Z,14.34
2022-08-10T02:39:05.530Z,14.39
2022-08-10T02:42:17.992Z,14.45
2022-08-10T02:45:30.861Z,14.48
2022-08-10T02:48:21.504Z,14.49
2022-08-10T02:51:14.728Z,14.43
2022-08-10T02:54:07.056Z,14.34
2022-08-10T02:57:02.791Z,14.55
2022-08-10T02:59:53.874Z,14.51
2022-08-10T03:02:49.635Z,14.51
2022-08-10T03:05:35.585Z,14.40
2022-08-10T03:08:27.775Z,14.38
2022-08-10T03:12:35.886Z,14.27
2022-08-10T03:14:26.582Z,14.08
2022-08-10T03:17:13.597Z,14.14
2022-08-10T03:20:33.398Z,14.34
2022-08-10T03:23:14.605Z,14.27
2022-08-10T03:26:00.941Z,14.16
2022-08-10T03:28:48.115Z,14.21
2022-08-10T03:31:34.169Z,14.13
2022-08-10T03:34:33.309Z,13.96
2022-08-10T03:37:19.362Z,13.99
2022-08-10T03:40:06.648Z,13.89
2022-08-10T03:42:54.092Z,13.95
2022-08-10T03:45:54.870Z,14.00
2022-08-10T03:48:48.670Z,14.01
2022-08-10T03:51:36.716Z,14.13
2022-08-10T03:54:22.962Z,14.00
2022-08-10T03:57:08.765Z,13.97
2022-08-10T03:59:54.303Z,13.93
2022-08-10T04:02:48.183Z,13.87
2022-08-10T04:05:38.582Z,13.89
2022-08-10T04:08:24.517Z,14.01
2022-08-10T04:11:10.979Z,14.06
2022-08-10T04:13:56.414Z,14.11
2022-08-10T04:16:42.265Z,13.93
2022-08-10T04:19:29.821Z,14.21
2022-08-10T04:22:20.599Z,14.25
2022-08-10T04:25:08.371Z,14.26
2022-08-10T04:27:55.032Z,14.19
2022-08-10T04:30:41.687Z,14.16
2022-08-10T04:33:31.722Z,14.33
2022-08-10T04:36:18.375Z,14.38
2022-08-10T04:39:03.552Z,14.41
2022-08-10T04:41:49.416Z,14.41
2022-08-10T04:44:35.111Z,14.50
2022-08-10T04:48:00.163Z,14.69
2022-08-10T04:50:26.008Z,14.67
2022-08-10T04:53:12.372Z,14.69
2022-08-10T04:55:58.045Z,14.66
2022-08-10T04:58:43.667Z,14.65
2022-08-10T05:02:12.492Z,14.91
2022-08-10T05:04:39.066Z,15.01
2022-08-10T05:07:24.910Z,15.15
2022-08-10T05:10:13.527Z,15.31
2022-08-10T05:12:59.352Z,15.32
2022-08-10T05:15:45.851Z,15.44
2022-08-10T05:18:31.540Z,15.47
2022-08-10T05:21:56.334Z,15.65
2022-08-10T05:24:22.898Z,15.83
2022-08-10T05:27:10.608Z,16.02
2022-08-10T05:30:02.555Z,16.32
2022-08-10T05:32:57.509Z,16.54
2022-08-10T05:35:56.837Z,16.66
2022-08-10T05:38:44.156Z,16.87
2022-08-10T05:41:31.184Z,17.02
2022-08-10T05:44:17.210Z,17.30
2022-08-10T05:47:06.775Z,17.40
2022-08-10T05:49:55.597Z,17.37
2022-08-10T05:52:41.271Z,17.39
2022-08-10T05:55:29.982Z,17.31
2022-08-10T05:58:15.455Z,17.46
2022-08-10T06:01:05.519Z,17.70
2022-08-10T06:03:58.504Z,17.84
2022-08-10T06:06:47.587Z,18.14
2022-08-10T06:09:36.122Z,18.27
2022-08-10T06:12:55.675Z,18.88
2022-08-10T06:15:51.878Z,19.46
2022-08-10T06:18:38.159Z,19.95
2022-08-10T06:21:24.174Z,20.32
2022-08-10T06:24:11.158Z,20.30
2022-08-10T06:26:56.619Z,20.56
2022-08-10T06:29:43.706Z,20.71
2022-08-10T06:32:30.786Z,20.91
2022-08-10T06:35:18.158Z,20.88
2022-08-10T06:38:06.052Z,21.17
2022-08-10T06:40:55.665Z,21.28
2022-08-10T06:43:48.092Z,21.36
2022-08-10T06:46:37.606Z,21.56
2022-08-10T06:49:23.518Z,21.45
2022-08-10T06:52:13.108Z,21.80
2022-08-10T06:55:08.494Z,21.71
2022-08-10T06:57:59.839Z,21.98
2022-08-10T07:00:46.618Z,22.67
2022-08-10T07:03:38.346Z,22.82
2022-08-10T07:06:24.650Z,22.89
2022-08-10T07:09:11.751Z,23.05
2022-08-10T07:12:08.089Z,23.20
2022-08-10T07:14:56.306Z,23.50
2022-08-10T07:17:41.836Z,23.85
2022-08-10T07:20:28.055Z,24.01
2022-08-10T07:23:57.128Z,24.26
2022-08-10T07:26:22.186Z,24.21
2022-08-10T07:29:08.284Z,23.97
2022-08-10T07:32:13.945Z,24.59
2022-08-10T07:35:01.242Z,24.70
2022-08-10T07:37:49.336Z,24.84
2022-08-10T07:40:36.527Z,24.79
2022-08-10T07:43:25.333Z,25.11
2022-08-10T07:46:14.567Z,25.08
2022-08-10T07:49:16.787Z,25.43
2022-08-10T07:52:10.440Z,25.68
2022-08-10T07:54:57.194Z,25.61
2022-08-10T07:57:46.559Z,26.15
2022-08-10T08:00:33.642Z,25.95
2022-08-10T08:03:28.608Z,26.18
2022-08-10T08:06:15.217Z,26.58
2022-08-10T08:09:03.602Z,26.91
2022-08-10T08:11:51.350Z,27.00
2022-08-10T08:14:38.300Z,27.22
2022-08-10T08:17:36.258Z,27.55
2022-08-10T08:20:24.159Z,28.26
2022-08-10T08:24:05.726Z,28.22
2022-08-10T08:26:21.427Z,28.83
2022-08-10T08:29:09.788Z,29.01
2022-08-10T08:32:01.849Z,29.79
2022-08-10T08:34:53.436Z,30.55
2022-08-10T08:38:33.127Z,30.11
2022-08-10T08:40:58.719Z,30.32
2022-08-10T08:44:05.863Z,30.46
2022-08-10T08:46:59.638Z,31.69
2022-08-10T08:50:08.449Z,31.93
2022-08-10T08:53:23.075Z,31.94
2022-08-10T08:56:16.649Z,32.01
2022-08-10T08:59:29.927Z,32.83
2022-08-10T09:02:54.617Z,33.18
2022-08-10T09:06:01.766Z,33.02
2022-08-10T09:09:01.983Z,33.99
2022-08-10T09:12:17.857Z,34.67
2022-08-10T09:15:40.702Z,34.61
2022-08-10T09:18:42.061Z,35.56
2022-08-10T09:21:55.202Z,35.30
2022-08-10T09:24:57.911Z,35.96
2022-08-10T09:27:49.189Z,35.71
2022-08-10T09:31:21.470Z,35.92
2022-08-10T09:36:20.493Z,37.59
2022-08-10T09:38:02.039Z,37.45
2022-08-10T09:41:16.029Z,38.18
2022-08-10T09:44:23.302Z,37.81
2022-08-10T09:47:23.481Z,37.69
2022-08-10T09:51:41.776Z,37.67
2022-08-10T09:54:21.692Z,39.18
2022-08-10T09:57:44.251Z,38.58
2022-08-10T10:00:47.435Z,39.54
2022-08-10T10:04:04.527Z,38.97
2022-08-10T10:06:55.725Z,39.92
2022-08-10T10:10:04.983Z,41.23
2022-08-10T10:12:59.690Z,41.51
2022-08-10T10:16:03.472Z,41.37
2022-08-10T10:19:01.601Z,41.55
2022-08-10T10:22:07.925Z,41.53
2022-08-10T10:25:49.780Z,43.38
2022-08-10T10:29:19.693Z,44.35
2022-08-10T10:32:01.234Z,43.77
2022-08-10T10:34:55.723Z,43.50
2022-08-10T10:38:10.647Z,41.43
2022-08-10T10:42:03.515Z,44.26
2022-08-10T10:44:52.598Z,45.32
2022-08-10T10:47:56.231Z,43.77
2022-08-10T10:50:47.558Z,46.69
2022-08-10T10:53:59.868Z,45.50
2022-08-10T10:57:13.591Z,44.02
2022-08-10T11:00:11.093Z,45.26
2022-08-10T11:03:05.454Z,47.27
2022-08-10T11:06:09.763Z,45.38
2022-08-10T11:09:05.240Z,45.24
2022-08-10T11:12:02.851Z,45.83
2022-08-10T11:15:03.300Z,44.55
2022-08-10T11:17:53.589Z,44.94
2022-08-10T11:20:45.407Z,46.63
2022-08-10T11:24:44.447Z,46.57
2022-08-10T11:27:30.517Z,45.50
2022-08-10T11:30:25.683Z,42.56
2022-08-10T11:34:11.742Z,43.66
2022-08-10T11:37:10.434Z,43.74
2022-08-10T11:40:12.256Z,44.47
2022-08-10T11:43:13.474Z,44.96
2022-08-10T11:46:09.122Z,45.69
2022-08-10T11:49:12.512Z,45.67
2022-08-10T11:52:12.949Z,43.44
2022-08-10T11:55:02.985Z,43.39
2022-08-10T11:57:54.780Z,44.07
2022-08-10T12:00:41.453Z,44.91
2022-08-10T12:03:32.680Z,44.24
2022-08-10T12:06:39.555Z,45.69
2022-08-10T12:10:08.929Z,45.84
2022-08-10T12:12:44.609Z,44.54
2022-08-10T12:15:40.831Z,44.47
2022-08-10T12:18:33.610Z,45.00
2022-08-10T12:21:23.334Z,44.82
2022-08-10T12:24:16.122Z,44.54
2022-08-10T12:27:14.049Z,47.10
2022-08-10T12:30:08.805Z,45.48
2022-08-10T12:32:54.322Z,44.94
2022-08-10T12:36:18.269Z,44.82
2022-08-10T12:39:07.602Z,46.87
2022-08-10T12:42:03.216Z,47.35
2022-08-10T12:45:03.867Z,44.61
2022-08-10T12:48:08.121Z,43.50
2022-08-10T12:51:00.163Z,44.73
2022-08-10T12:54:09.072Z,45.77
2022-08-10T12:57:01.626Z,44.15
2022-08-10T12:59:51.638Z,44.68
2022-08-10T13:02:48.616Z,46.58
2022-08-10T13:06:02.122Z,45.32
2022-08-10T13:09:02.052Z,48.74
2022-08-10T13:12:35.090Z,47.69
2022-08-10T13:15:45.661Z,46.25
2022-08-10T13:18:18.363Z,45.21
2022-08-10T13:21:20.790Z,46.40
2022-08-10T13:24:16.229Z,44.49
2022-08-10T13:27:26.463Z,44.36
2022-08-10T13:30:11.799Z,43.56
2022-08-10T13:32:58.842Z,46.16
2022-08-10T13:35:45.620Z,47.60
2022-08-10T13:38:33.656Z,47.02
2022-08-10T13:41:19.644Z,44.86
2022-08-10T13:44:08.451Z,45.34
2022-08-10T13:46:56.130Z,48.33
2022-08-10T13:50:02.556Z,45.40
2022-08-10T13:52:54.566Z,45.26
2022-08-10T13:55:48.797Z,44.33
2022-08-10T13:58:42.094Z,43.09
2022-08-10T14:01:33.307Z,44.61
2022-08-10T14:04:20.270Z,44.74
2022-08-10T14:07:05.928Z,46.41
2022-08-10T14:09:53.024Z,48.51
2022-08-10T14:12:43.324Z,49.90
2022-08-10T14:15:32.175Z,45.79
2022-08-10T14:18:18.734Z,44.80
2022-08-10T14:21:04.840Z,45.62
2022-08-10T14:23:53.634Z,45.74
2022-08-10T14:26:40.554Z,46.48
2022-08-10T14:29:28.571Z,44.84
2022-08-10T14:32:17.775Z,47.42
2022-08-10T14:36:20.784Z,45.97
2022-08-10T14:38:17.609Z,43.44
2022-08-10T14:41:13.271Z,44.86
2022-08-10T14:44:20.281Z,47.10
2022-08-10T14:47:51.268Z,45.88
2022-08-10T14:50:31.754Z,43.00
2022-08-10T14:53:21.349Z,44.34
2022-08-10T14:56:16.939Z,44.46
2022-08-10T14:59:07.634Z,45.18
2022-08-10T15:02:40.889Z,42.68
2022-08-10T15:05:09.089Z,43.33
2022-08-10T15:07:58.987Z,44.49
2022-08-10T15:10:50.837Z,47.10
2022-08-10T15:13:36.859Z,43.91
2022-08-10T15:16:23.567Z,43.59
2022-08-10T15:20:01.234Z,44.95
2022-08-10T15:22:45.202Z,43.82
2022-08-10T15:25:26.152Z,43.30
2022-08-10T15:28:14.508Z,45.10
2022-08-10T15:31:03.585Z,44.63
2022-08-10T15:34:09.746Z,44.08
2022-08-10T15:37:40.622Z,40.39
2022-08-10T15:40:31.102Z,37.54
2022-08-10T15:43:20.869Z,37.75
2022-08-10T15:46:19.053Z,37.55
2022-08-10T15:49:11.540Z,34.78
2022-08-10T15:52:06.355Z,34.52
2022-08-10T15:55:42.961Z,33.31
2022-08-10T15:58:39.721Z,32.72
2022-08-10T16:02:14.678Z,32.54
2022-08-10T16:04:53.716Z,31.68
2022-08-10T16:07:57.819Z,32.09
2022-08-10T16:10:56.345Z,31.99
2022-08-10T16:13:50.236Z,31.56
2022-08-10T16:16:54.184Z,31.37
2022-08-10T16:19:49.987Z,31.11
2022-08-10T16:22:37.549Z,30.88
2022-08-10T16:25:24.994Z,31.04
2022-08-10T16:28:35.098Z,31.05
2022-08-10T16:31:24.025Z,31.15
2022-08-10T16:34:18.810Z,31.21
2022-08-10T16:37:13.904Z,31.02
2022-08-10T16:40:01.652Z,31.01
2022-08-10T16:42:49.147Z,30.80
2022-08-10T16:45:39.658Z,30.47
2022-08-10T16:48:48.889Z,30.00
2022-08-10T16:51:34.881Z,29.64
2022-08-10T16:54:27.051Z,29.73
2022-08-10T16:57:15.722Z,29.55
2022-08-10T17:00:01.701Z,29.80
2022-08-10T17:02:48.896Z,29.24
2022-08-10T17:06:10.389Z,29.00
2022-08-10T17:08:48.010Z,28.80
2022-08-10T17:11:37.514Z,28.75
2022-08-10T17:14:25.083Z,28.74
2022-08-10T17:17:22.600Z,28.80
2022-08-10T17:20:31.794Z,28.59
2022-08-10T17:23:17.580Z,28.19
2022-08-10T17:26:13.635Z,28.15
2022-08-10T17:29:09.451Z,27.84
2022-08-10T17:32:24.081Z,27.79
2022-08-10T17:35:13.877Z,27.75
2022-08-10T17:38:09.441Z,27.60
2022-08-10T17:41:10.482Z,27.72
2022-08-10T17:44:02.431Z,27.50
2022-08-10T17:46:49.992Z,27.37
2022-08-10T17:49:36.830Z,27.30
2022-08-10T17:52:25.024Z,27.24
2022-08-10T17:55:11.288Z,27.11
2022-08-10T17:58:02.071Z,27.07
2022-08-10T18:00:54.951Z,27.03
2022-08-10T18:03:43.580Z,26.94
2022-08-10T18:06:31.425Z,26.97
2022-08-10T18:09:38.447Z,26.82
2022-08-10T18:12:40.629Z,26.79
2022-08-10T18:15:27.879Z,26.69
2022-08-10T18:18:22.169Z,26.55
2022-08-10T18:21:15.771Z,26.55
2022-08-10T18:24:06.524Z,26.42
2022-08-10T18:26:53.837Z,26.26
2022-08-10T18:29:44.045Z,26.12
2022-08-10T18:32:35.121Z,26.13
2022-08-10T18:35:24.364Z,26.04
2022-08-10T18:38:21.940Z,25.67
2022-08-10T18:41:11.973Z,25.73
2022-08-10T18:44:11.464Z,25.54
2022-08-10T18:47:03.796Z,25.29
2022-08-10T18:49:56.241Z,25.15
2022-08-10T18:52:46.156Z,25.27
2022-08-10T18:55:46.110Z,25.24
2022-08-10T18:58:41.075Z,25.07
2022-08-10T19:01:53.960Z,24.87
2022-08-10T19:05:30.202Z,24.86
2022-08-10T19:08:49.155Z,24.82
2022-08-10T19:12:04.896Z,24.70
2022-08-10T19:15:14.650Z,24.51
2022-08-10T19:18:13.702Z,24.38
2022-08-10T19:21:16.211Z,24.21
2022-08-10T19:24:09.620Z,24.25
2022-08-10T19:27:21.288Z,24.07
2022-08-10T19:30:13.023Z,24.14
2022-08-10T19:33:36.928Z,24.02
2022-08-10T19:36:35.334Z,23.92
2022-08-10T19:39:58.470Z,23.81
2022-08-10T19:42:50.308Z,23.69
2022-08-10T19:45:59.141Z,23.53
2022-08-10T19:48:58.661Z,23.58
2022-08-10T19:52:11.363Z,23.33
2022-08-10T19:55:08.979Z,23.17
2022-08-10T19:58:19.650Z,23.09
2022-08-10T20:01:07.583Z,22.78
2022-08-10T20:04:04.607Z,22.46
2022-08-10T20:06:55.826Z,22.01
2022-08-10T20:10:00.172Z,21.71
2022-08-10T20:12:55.345Z,21.63
2022-08-10T20:15:47.374Z,21.48
2022-08-10T20:18:37.928Z,21.38
2022-08-10T20:21:29.055Z,21.18
2022-08-10T20:24:30.935Z,21.19
2022-08-10T20:27:58.846Z,21.50
2022-08-10T20:30:36.366Z,21.92
2022-08-10T20:33:41.265Z,22.17
2022-08-10T20:36:31.647Z,22.14
2022-08-10T20:39:41.695Z,22.23
2022-08-10T20:43:04.411Z,22.17
2022-08-10T20:46:20.944Z,22.26
2022-08-10T20:49:22.332Z,22.05
2022-08-10T20:52:08.003Z,22.00
2022-08-10T20:55:01.467Z,21.92
2022-08-10T20:58:34.654Z,21.77
2022-08-10T21:02:06.750Z,21.71
2022-08-10T21:05:26.161Z,21.66
2022-08-10T21:08:27.947Z,21.64
2022-08-10T21:11:34.808Z,21.45
2022-08-10T21:14:46.099Z,21.53
2022-08-10T21:17:50.979Z,21.42
2022-08-10T21:21:06.872Z,21.38
2022-08-10T21:23:57.577Z,21.32
2022-08-10T21:26:55.302Z,21.27
2022-08-10T21:29:59.979Z,21.06
2022-08-10T21:32:59.284Z,21.10
2022-08-10T21:35:52.801Z,21.02
2022-08-10T21:38:48.341Z,21.02
2022-08-10T21:42:30.845Z,21.02
2022-08-10T21:49:23.069Z,20.84
2022-08-10T21:52:33.170Z,20.85
2022-08-10T21:56:02.000Z,20.90
2022-08-10T21:59:47.976Z,20.70
2022-08-10T22:02:54.216Z,20.61
2022-08-10T22:05:59.258Z,20.50
2022-08-10T22:09:10.069Z,20.38
2022-08-10T22:12:30.951Z,20.30
2022-08-10T22:16:05.421Z,20.33
2022-08-10T22:19:14.452Z,20.28
2022-08-10T22:22:30.722Z,20.01
2022-08-10T22:25:45.720Z,19.57
2022-08-10T22:29:04.169Z,19.16
2022-08-10T22:31:25.188Z,21.04
2022-08-10T22:32:17.339Z,18.77
2022-08-10T22:36:00.368Z,18.53
2022-08-10T22:40:10.945Z,18.33
2022-08-10T22:43:09.946Z,18.22
2022-08-10T22:46:18.841Z,18.05
2022-08-10T22:49:04.949Z,18.07
2022-08-10T22:52:14.398Z,18.00
2022-08-10T22:55:32.246Z,18.10
2022-08-10T22:58:38.762Z,18.03
2022-08-10T23:02:07.289Z,17.83
2022-08-10T23:04:55.547Z,17.73
2022-08-10T23:07:56.666Z,17.70
2022-08-10T23:10:45.271Z,17.68
2022-08-10T23:13:39.109Z,17.69
2022-08-10T23:16:46.768Z,17.72
2022-08-10T23:19:47.339Z,17.55
2022-08-10T23:22:40.952Z,17.48
2022-08-10T23:25:30.267Z,17.41
2022-08-10T23:28:38.167Z,17.53
2022-08-10T23:32:00.597Z,17.62
2022-08-10T23:34:33.697Z,17.53
2022-08-10T23:37:20.139Z,17.42
2022-08-10T23:40:11.815Z,17.35
2022-08-10T23:42:58.400Z,17.33
2022-08-10T23:45:53.001Z,17.17
2022-08-10T23:48:45.003Z,16.92
2022-08-10T23:51:54.996Z,16.99
2022-08-10T23:54:48.656Z,16.83
2022-08-10T23:57:36.232Z,16.75
